createdAt,value
2022-09-29T00:01:11.113Z,5.25
2022-09-29T00:03:38.767Z,8.20
2022-09-29T00:06:12.737Z,5.22
2022-09-29T00:08:40.074Z,5.18
2022-09-29T00:11:09.063Z,4.20
2022-09-29T00:13:36.526Z,4.85
2022-09-29T00:16:06.609Z,5.13
2022-09-29T00:18:35.276Z,5.38
2022-09-29T00:21:05.871Z,5.30
2022-09-29T00:23:35.607Z,5.35
2022-09-29T00:26:09.055Z,4.43
2022-09-29T00:28:38.708Z,5.90
2022-09-29T00:31:08.483Z,5.00
2022-09-29T00:33:37.137Z,4.50
2022-09-29T00:36:12.540Z,5.70
2022-09-29T00:38:44.198Z,4.80
2022-09-29T00:41:18.068Z,3.90
2022-09-29T00:43:57.958Z,6.65
2022-09-29T00:46:28.216Z,5.10
2022-09-29T00:48:58.070Z,5.60
2022-09-29T00:51:27.882Z,4.88
2022-09-29T00:53:59.032Z,4.18
2022-09-29T00:56:27.686Z,5.55
2022-09-29T00:59:05.549Z,3.38
2022-09-29T01:01:36.134Z,4.38
2022-09-29T01:04:17.935Z,3.85
2022-09-29T01:06:58.696Z,4.53
2022-09-29T01:09:38.983Z,4.50
2022-09-29T01:12:07.217Z,4.22
2022-09-29T01:14:38.155Z,4.45
2022-09-29T01:17:06.667Z,4.40
2022-09-29T01:20:04.494Z,4.82
2022-09-29T01:22:50.783Z,5.03
2022-09-29T01:25:37.172Z,3.70
2022-09-29T01:28:25.078Z,4.13
2022-09-29T01:31:12.646Z,4.13
2022-09-29T01:33:49.383Z,4.60
2022-09-29T01:36:35.362Z,3.83
2022-09-29T01:39:17.415Z,4.13
2022-09-29T01:41:44.723Z,4.10
2022-09-29T01:44:47.644Z,6.40
2022-09-29T01:47:21.815Z,4.13
2022-09-29T01:50:00.397Z,4.60
2022-09-29T01:52:31.507Z,5.25
2022-09-29T01:55:06.614Z,4.88
2022-09-29T01:57:40.117Z,4.00
2022-09-29T02:00:12.722Z,3.22
2022-09-29T02:02:50.997Z,4.45
2022-09-29T02:05:41.347Z,4.05
2022-09-29T02:08:17.119Z,4.13
2022-09-29T02:10:54.262Z,3.97
2022-09-29T02:13:24.023Z,4.00
2022-09-29T02:15:55.259Z,3.30
2022-09-29T02:18:26.415Z,3.53
2022-09-29T02:20:53.853Z,4.57
2022-09-29T02:23:21.416Z,5.00
2022-09-29T02:25:51.227Z,4.35
2022-09-29T02:28:19.569Z,5.50
2022-09-29T02:30:51.114Z,3.78
2022-09-29T02:33:24.486Z,4.70
2022-09-29T02:36:16.744Z,4.45
2022-09-29T02:38:57.205Z,4.10
2022-09-29T02:41:39.803Z,4.20
2022-09-29T02:44:34.166Z,3.92
2022-09-29T02:47:19.944Z,4.28
2022-09-29T02:50:29.436Z,4.63
2022-09-29T02:53:09.014Z,3.90
2022-09-29T02:55:57.256Z,4.38
2022-09-29T02:58:37.058Z,3.60
2022-09-29T03:01:05.750Z,4.00
2022-09-29T03:03:33.594Z,4.47
2022-09-29T03:06:01.526Z,4.50
2022-09-29T03:08:29.051Z,3.40
2022-09-29T03:10:56.640Z,3.95
2022-09-29T03:13:24.094Z,3.95
2022-09-29T03:15:53.832Z,4.30
2022-09-29T03:18:23.220Z,4.05
2022-09-29T03:20:55.158Z,3.88
2022-09-29T03:23:23.045Z,3.67
2022-09-29T03:25:50.387Z,5.25
2022-09-29T03:28:18.014Z,3.80
2022-09-29T03:30:45.456Z,3.10
2022-09-29T03:33:12.888Z,3.95
2022-09-29T03:35:44.606Z,3.78
2022-09-29T03:38:12.233Z,4.28
2022-09-29T03:40:40.210Z,3.92
2022-09-29T03:43:09.995Z,3.92
2022-09-29T03:45:39.497Z,3.20
2022-09-29T03:48:06.904Z,3.22
2022-09-29T03:50:34.382Z,6.32
2022-09-29T03:53:01.767Z,4.10
2022-09-29T03:55:33.814Z,4.47
2022-09-29T03:58:03.879Z,3.75
2022-09-29T04:00:31.460Z,3.80
2022-09-29T04:02:59.136Z,4.15
2022-09-29T04:05:29.155Z,4.65
2022-09-29T04:07:56.755Z,4.07
2022-09-29T04:10:24.182Z,5.00
2022-09-29T04:12:51.777Z,4.47
2022-09-29T04:15:19.169Z,3.92
2022-09-29T04:17:46.488Z,4.13
2022-09-29T04:20:14.113Z,4.72
2022-09-29T04:22:42.347Z,5.47
2022-09-29T04:25:09.876Z,4.35
2022-09-29T04:27:38.665Z,3.33
2022-09-29T04:30:07.109Z,4.00
2022-09-29T04:32:35.313Z,4.30
2022-09-29T04:35:03.109Z,4.20
2022-09-29T04:37:31.834Z,4.43
2022-09-29T04:39:59.245Z,3.78
2022-09-29T04:42:29.953Z,4.32
2022-09-29T04:44:57.334Z,4.07
2022-09-29T04:47:25.162Z,3.78
2022-09-29T04:49:52.659Z,3.40
2022-09-29T04:52:20.340Z,3.83
2022-09-29T04:54:49.045Z,5.05
2022-09-29T04:57:16.517Z,4.20
2022-09-29T04:59:44.030Z,4.03
2022-09-29T05:02:11.651Z,3.97
2022-09-29T05:04:39.200Z,4.00
2022-09-29T05:07:06.790Z,5.18
2022-09-29T05:09:34.433Z,4.55
2022-09-29T05:12:02.711Z,5.03
2022-09-29T05:14:30.262Z,3.15
2022-09-29T05:16:58.589Z,3.40
2022-09-29T05:19:26.142Z,4.22
2022-09-29T05:21:53.683Z,3.78
2022-09-29T05:24:21.146Z,4.75
2022-09-29T05:26:48.726Z,3.92
2022-09-29T05:29:19.545Z,3.30
2022-09-29T05:31:49.542Z,3.42
2022-09-29T05:34:17.988Z,4.15
2022-09-29T05:36:48.732Z,3.80
2022-09-29T05:39:17.555Z,4.15
2022-09-29T05:41:44.953Z,7.45
2022-09-29T05:44:12.287Z,7.35
2022-09-29T05:46:42.203Z,4.80
2022-09-29T05:49:10.985Z,4.35
2022-09-29T05:51:43.080Z,3.80
2022-09-29T05:54:13.320Z,4.75
2022-09-29T05:56:45.522Z,4.47
2022-09-29T05:59:13.500Z,5.35
2022-09-29T06:01:41.157Z,3.55
2022-09-29T06:04:08.932Z,3.67
2022-09-29T06:06:36.786Z,4.30
2022-09-29T06:09:04.327Z,5.68
2022-09-29T06:11:33.769Z,3.55
2022-09-29T06:14:02.667Z,4.38
2022-09-29T06:16:32.242Z,4.55
2022-09-29T06:19:01.562Z,4.28
2022-09-29T06:21:30.715Z,5.35
2022-09-29T06:23:58.995Z,5.88
2022-09-29T06:26:28.190Z,4.07
2022-09-29T06:28:57.075Z,5.13
2022-09-29T06:31:27.095Z,4.68
2022-09-29T06:34:01.859Z,4.72
2022-09-29T06:36:57.789Z,4.80
2022-09-29T06:39:25.791Z,4.68
2022-09-29T06:41:56.585Z,6.25
2022-09-29T06:44:27.017Z,4.75
2022-09-29T06:46:55.175Z,6.40
2022-09-29T06:49:24.220Z,4.97
2022-09-29T06:51:52.208Z,5.00
2022-09-29T06:54:22.106Z,5.68
2022-09-29T06:56:51.127Z,4.75
2022-09-29T06:59:20.968Z,4.85
2022-09-29T07:01:51.028Z,4.15
2022-09-29T07:04:23.596Z,4.60
2022-09-29T07:06:54.698Z,5.55
2022-09-29T07:09:23.374Z,4.60
2022-09-29T07:11:52.046Z,4.10
2022-09-29T07:14:25.543Z,4.60
2022-09-29T07:16:54.197Z,5.10
2022-09-29T07:19:24.810Z,4.95
2022-09-29T07:21:52.716Z,5.28
2022-09-29T07:24:20.093Z,4.40
2022-09-29T07:26:47.863Z,4.45
2022-09-29T07:29:16.377Z,3.35
2022-09-29T07:31:51.957Z,3.70
2022-09-29T07:34:24.611Z,4.30
2022-09-29T07:36:54.445Z,3.50
2022-09-29T07:39:23.002Z,4.45
2022-09-29T07:41:51.959Z,7.25
2022-09-29T07:44:19.470Z,3.90
2022-09-29T07:46:49.064Z,6.45
2022-09-29T07:49:16.391Z,6.85
2022-09-29T07:51:43.957Z,4.63
2022-09-29T07:54:11.538Z,6.72
2022-09-29T07:56:38.953Z,4.15
2022-09-29T07:59:06.623Z,3.38
2022-09-29T08:01:35.501Z,4.18
2022-09-29T08:04:03.391Z,3.67
2022-09-29T08:06:32.674Z,4.63
2022-09-29T08:09:05.194Z,4.75
2022-09-29T08:11:37.595Z,5.38
2022-09-29T08:14:05.161Z,4.33
2022-09-29T08:16:32.833Z,3.53
2022-09-29T08:19:01.433Z,5.95
2022-09-29T08:21:36.392Z,3.75
2022-09-29T08:24:05.862Z,3.97
2022-09-29T08:26:42.746Z,4.22
2022-09-29T08:29:17.314Z,4.20
2022-09-29T08:31:45.902Z,4.78
2022-09-29T08:34:14.103Z,3.45
2022-09-29T08:36:43.522Z,4.38
2022-09-29T08:39:12.077Z,3.70
2022-09-29T08:41:52.290Z,3.50
2022-09-29T08:44:41.509Z,3.88
2022-09-29T08:47:43.398Z,6.20
2022-09-29T08:50:17.988Z,5.18
2022-09-29T08:52:52.642Z,5.97
2022-09-29T08:55:31.776Z,5.32
2022-09-29T08:58:01.518Z,4.43
2022-09-29T09:00:57.005Z,4.57
2022-09-29T09:03:46.350Z,5.15
2022-09-29T09:06:35.447Z,4.60
2022-09-29T09:09:09.407Z,4.53
2022-09-29T09:12:04.614Z,5.95
2022-09-29T09:15:16.756Z,5.78
2022-09-29T09:18:22.578Z,4.65
2022-09-29T09:21:03.769Z,4.30
2022-09-29T09:23:59.828Z,5.28
2022-09-29T09:26:43.508Z,4.75
2022-09-29T09:29:25.376Z,5.17
2022-09-29T09:32:08.206Z,4.20
2022-09-29T09:34:56.567Z,6.83
2022-09-29T09:37:35.184Z,5.05
2022-09-29T09:40:27.702Z,4.72
2022-09-29T09:43:03.477Z,4.30
2022-09-29T09:45:39.593Z,4.88
2022-09-29T09:48:26.172Z,5.80
2022-09-29T09:50:55.896Z,5.03
2022-09-29T09:53:35.255Z,4.47
2022-09-29T09:56:31.687Z,6.20
2022-09-29T09:59:20.625Z,5.18
2022-09-29T10:01:49.808Z,5.82
2022-09-29T10:04:17.576Z,7.25
2022-09-29T10:06:44.987Z,6.50
2022-09-29T10:09:16.365Z,8.50
2022-09-29T10:11:44.432Z,10.32
2022-09-29T10:14:20.659Z,10.05
2022-09-29T10:16:54.541Z,8.93
2022-09-29T10:19:24.381Z,11.43
2022-09-29T10:21:51.845Z,9.25
2022-09-29T10:24:22.219Z,13.43
2022-09-29T10:26:51.590Z,11.13
2022-09-29T10:29:38.489Z,11.68
2022-09-29T10:32:19.529Z,11.70
2022-09-29T10:34:50.548Z,8.18
2022-09-29T10:37:35.454Z,9.32
2022-09-29T10:40:23.967Z,7.20
2022-09-29T10:42:53.448Z,6.97
2022-09-29T10:45:26.630Z,7.15
2022-09-29T10:48:04.492Z,4.05
2022-09-29T10:50:48.425Z,11.60
2022-09-29T10:53:24.258Z,10.48
2022-09-29T10:55:55.781Z,9.85
2022-09-29T10:58:59.017Z,8.48
2022-09-29T11:01:30.505Z,21.83
2022-09-29T11:04:03.555Z,12.45
2022-09-29T11:09:01.700Z,9.18
2022-09-29T11:11:32.982Z,18.70
2022-09-29T11:14:00.424Z,7.63
2022-09-29T11:16:34.596Z,9.32
2022-09-29T11:19:12.683Z,6.18
2022-09-29T11:22:00.741Z,6.07
2022-09-29T11:24:54.379Z,5.55
2022-09-29T11:27:24.869Z,6.28
2022-09-29T11:29:56.550Z,5.00
2022-09-29T11:32:42.734Z,4.13
2022-09-29T11:35:45.626Z,4.63
2022-09-29T11:38:22.280Z,3.92
2022-09-29T11:41:06.585Z,3.95
2022-09-29T11:43:52.288Z,4.68
2022-09-29T11:46:49.171Z,4.30
2022-09-29T11:49:39.720Z,4.35
2022-09-29T11:52:14.355Z,12.32
2022-09-29T11:55:21.670Z,5.20
2022-09-29T11:58:25.137Z,5.28
2022-09-29T12:01:34.072Z,3.72
2022-09-29T12:04:33.291Z,5.15
2022-09-29T12:07:38.702Z,3.58
2022-09-29T12:10:28.061Z,5.75
2022-09-29T12:13:21.051Z,3.67
2022-09-29T12:16:04.264Z,4.40
2022-09-29T12:19:01.530Z,4.00
2022-09-29T12:21:37.808Z,4.15
2022-09-29T12:24:13.011Z,4.03
2022-09-29T12:26:40.790Z,4.25
2022-09-29T12:29:20.401Z,3.78
2022-09-29T12:31:52.372Z,3.30
2022-09-29T12:34:26.828Z,3.10
2022-09-29T12:37:04.839Z,3.40
2022-09-29T12:39:40.790Z,2.97
2022-09-29T12:42:11.947Z,5.80
2022-09-29T12:44:55.650Z,3.03
2022-09-29T12:47:37.224Z,3.97
2022-09-29T12:50:22.826Z,2.90
2022-09-29T12:53:21.829Z,3.15
2022-09-29T12:56:04.353Z,2.65
2022-09-29T12:58:58.690Z,4.87
2022-09-29T13:01:27.916Z,5.35
2022-09-29T13:04:29.265Z,3.72
2022-09-29T13:07:38.690Z,3.58
2022-09-29T13:10:28.086Z,3.40
2022-09-29T13:13:13.291Z,4.55
2022-09-29T13:16:04.585Z,4.55
2022-09-29T13:18:54.038Z,6.88
2022-09-29T13:21:47.098Z,4.57
2022-09-29T13:24:31.953Z,4.70
2022-09-29T13:27:07.715Z,4.68
2022-09-29T13:29:47.259Z,2.50
2022-09-29T13:32:15.669Z,2.50
2022-09-29T13:34:53.967Z,3.17
2022-09-29T13:37:23.739Z,4.13
2022-09-29T13:40:38.004Z,2.75
2022-09-29T13:43:05.769Z,3.20
2022-09-29T13:45:34.848Z,3.55
2022-09-29T13:48:19.748Z,2.58
2022-09-29T13:50:59.592Z,3.50
2022-09-29T13:53:37.994Z,2.45
2022-09-29T13:56:14.468Z,2.97
2022-09-29T13:58:50.677Z,2.70
2022-09-29T14:01:39.603Z,3.40
2022-09-29T14:04:35.541Z,4.32
2022-09-29T14:07:08.126Z,2.60
2022-09-29T14:09:41.732Z,2.60
2022-09-29T14:12:26.263Z,3.83
2022-09-29T14:15:00.405Z,2.65
2022-09-29T14:17:44.257Z,3.60
2022-09-29T14:20:26.597Z,3.15
2022-09-29T14:23:14.468Z,2.95
2022-09-29T14:25:41.855Z,11.77
2022-09-29T14:28:21.401Z,3.22
2022-09-29T14:30:52.934Z,3.10
2022-09-29T14:33:29.423Z,11.25
2022-09-29T14:36:00.177Z,3.95
2022-09-29T14:38:41.816Z,3.28
2022-09-29T14:41:10.280Z,5.68
2022-09-29T14:43:42.302Z,3.60
2022-09-29T14:46:55.163Z,3.78
2022-09-29T14:50:09.422Z,3.42
2022-09-29T14:53:03.396Z,4.88
2022-09-29T14:55:34.351Z,5.45
2022-09-29T14:58:21.647Z,3.75
2022-09-29T15:01:25.632Z,4.47
2022-09-29T15:06:28.988Z,6.53
2022-09-29T15:09:00.953Z,3.15
2022-09-29T15:11:43.391Z,3.65
2022-09-29T15:14:38.120Z,4.80
2022-09-29T15:17:19.302Z,3.08
2022-09-29T15:20:22.796Z,3.38
2022-09-29T15:22:59.912Z,3.83
2022-09-29T15:25:34.222Z,3.80
2022-09-29T15:28:11.224Z,3.47
2022-09-29T15:30:38.813Z,4.53
2022-09-29T15:33:18.463Z,3.90
2022-09-29T15:35:51.177Z,4.90
2022-09-29T15:38:39.941Z,6.25
2022-09-29T15:41:13.381Z,5.80
2022-09-29T15:43:44.484Z,5.50
2022-09-29T15:46:22.232Z,4.65
2022-09-29T15:49:10.841Z,4.93
2022-09-29T15:51:44.631Z,5.72
2022-09-29T15:54:14.945Z,7.18
2022-09-29T15:57:00.943Z,4.97
2022-09-29T15:59:51.601Z,6.47
2022-09-29T16:03:10.861Z,4.65
2022-09-29T16:05:44.607Z,3.75
2022-09-29T16:08:13.791Z,5.57
2022-09-29T16:10:49.641Z,3.88
2022-09-29T16:13:27.501Z,6.53
2022-09-29T16:15:58.794Z,5.15
2022-09-29T16:18:39.217Z,3.70
2022-09-29T16:21:13.824Z,4.43
2022-09-29T16:23:49.702Z,4.90
2022-09-29T16:26:39.731Z,4.85
2022-09-29T16:29:10.149Z,4.53
2022-09-29T16:31:40.191Z,6.15
2022-09-29T16:34:23.371Z,5.53
2022-09-29T16:36:53.579Z,4.70
2022-09-29T16:39:34.008Z,5.35
2022-09-29T16:42:05.384Z,4.20
2022-09-29T16:44:36.840Z,3.97
2022-09-29T16:47:17.732Z,3.78
2022-09-29T16:49:56.951Z,4.78
2022-09-29T16:52:31.874Z,3.80
2022-09-29T16:55:29.600Z,4.78
2022-09-29T16:58:15.086Z,6.78
2022-09-29T17:00:47.043Z,3.72
2022-09-29T17:03:15.027Z,5.18
2022-09-29T17:05:47.766Z,5.50
2022-09-29T17:08:24.227Z,3.80
2022-09-29T17:10:53.600Z,3.95
2022-09-29T17:13:21.689Z,4.40
2022-09-29T17:15:51.915Z,4.55
2022-09-29T17:18:25.114Z,5.10
2022-09-29T17:20:53.297Z,4.13
2022-09-29T17:23:20.686Z,3.75
2022-09-29T17:25:49.671Z,4.47
2022-09-29T17:28:24.655Z,5.18
2022-09-29T17:30:55.596Z,5.07
2022-09-29T17:33:23.967Z,3.35
2022-09-29T17:35:55.927Z,4.85
2022-09-29T17:38:27.210Z,4.35
2022-09-29T17:41:02.711Z,5.38
2022-09-29T17:43:33.733Z,12.52
2022-09-29T17:46:02.019Z,4.13
2022-09-29T17:48:30.838Z,7.20
2022-09-29T17:50:59.598Z,4.60
2022-09-29T17:53:27.551Z,5.13
2022-09-29T17:55:58.004Z,6.00
2022-09-29T17:58:25.717Z,6.97
2022-09-29T18:00:57.358Z,7.45
2022-09-29T18:03:29.704Z,7.15
2022-09-29T18:06:00.128Z,4.93
2022-09-29T18:08:30.839Z,7.07
2022-09-29T18:11:00.650Z,5.80
2022-09-29T18:13:31.460Z,6.40
2022-09-29T18:16:00.315Z,5.45
2022-09-29T18:18:28.372Z,5.50
2022-09-29T18:20:56.299Z,5.03
2022-09-29T18:23:24.674Z,7.13
2022-09-29T18:25:53.828Z,5.88
2022-09-29T18:28:23.594Z,6.80
2022-09-29T18:31:01.208Z,5.78
2022-09-29T18:33:29.051Z,6.50
2022-09-29T18:35:56.594Z,6.30
2022-09-29T18:38:24.314Z,6.05
2022-09-29T18:40:56.170Z,4.40
2022-09-29T18:43:25.999Z,6.60
2022-09-29T18:45:55.810Z,3.97
2022-09-29T18:48:24.092Z,4.93
2022-09-29T18:50:53.546Z,5.25
2022-09-29T18:53:22.246Z,5.63
2022-09-29T18:55:52.427Z,6.57
2022-09-29T18:58:21.250Z,6.43
2022-09-29T19:00:55.168Z,5.55
2022-09-29T19:03:24.642Z,5.90
2022-09-29T19:05:55.256Z,5.20
2022-09-29T19:08:23.485Z,4.95
2022-09-29T19:10:57.704Z,5.72
2022-09-29T19:13:26.095Z,6.57
2022-09-29T19:15:58.044Z,4.93
2022-09-29T19:18:28.998Z,6.68
2022-09-29T19:20:58.619Z,6.28
2022-09-29T19:23:27.044Z,5.80
2022-09-29T19:25:58.592Z,5.75
2022-09-29T19:28:27.360Z,4.72
2022-09-29T19:31:03.717Z,5.07
2022-09-29T19:33:31.119Z,5.72
2022-09-29T19:36:08.327Z,6.05
2022-09-29T19:38:40.504Z,6.47
2022-09-29T19:43:40.576Z,6.45
2022-09-29T19:46:10.194Z,8.32
2022-09-29T19:48:38.107Z,11.48
2022-09-29T19:51:24.394Z,16.35
2022-09-29T19:54:10.795Z,20.10
2022-09-29T19:56:43.155Z,19.33
2022-09-29T19:59:14.067Z,16.77
2022-09-29T20:01:45.668Z,16.33
2022-09-29T20:04:14.569Z,15.80
2022-09-29T20:06:43.422Z,13.95
2022-09-29T20:09:12.068Z,10.13
2022-09-29T20:11:41.020Z,8.70
2022-09-29T20:14:11.635Z,10.38
2022-09-29T20:16:42.053Z,11.45
2022-09-29T20:19:14.066Z,7.65
2022-09-29T20:21:46.919Z,8.57
2022-09-29T20:24:17.237Z,6.97
2022-09-29T20:26:47.184Z,7.70
2022-09-29T20:29:20.818Z,6.32
2022-09-29T20:31:48.416Z,8.52
2022-09-29T20:34:18.561Z,5.93
2022-09-29T20:36:50.908Z,8.98
2022-09-29T20:39:21.787Z,7.00
2022-09-29T20:41:50.032Z,6.30
2022-09-29T20:44:19.996Z,8.32
2022-09-29T20:46:48.746Z,6.80
2022-09-29T20:49:16.234Z,7.72
2022-09-29T20:51:45.051Z,7.30
2022-09-29T20:54:13.355Z,6.80
2022-09-29T20:56:44.564Z,7.28
2022-09-29T20:59:18.339Z,6.28
2022-09-29T21:01:46.005Z,6.45
2022-09-29T21:04:16.355Z,7.53
2022-09-29T21:06:46.403Z,5.93
2022-09-29T21:09:18.757Z,6.60
2022-09-29T21:11:47.307Z,8.23
2022-09-29T21:14:18.482Z,6.18
2022-09-29T21:16:51.473Z,5.38
2022-09-29T21:19:24.000Z,5.95
2022-09-29T21:21:52.270Z,5.78
2022-09-29T21:24:19.738Z,5.68
2022-09-29T21:26:47.632Z,5.47
2022-09-29T21:29:17.612Z,6.35
2022-09-29T21:31:46.057Z,5.97
2022-09-29T21:34:15.175Z,6.63
2022-09-29T21:36:42.893Z,6.70
2022-09-29T21:39:10.379Z,6.20
2022-09-29T21:41:41.170Z,6.85
2022-09-29T21:44:13.222Z,6.75
2022-09-29T21:46:42.759Z,5.93
2022-09-29T21:49:12.226Z,5.90
2022-09-29T21:51:42.330Z,7.05
2022-09-29T21:54:21.060Z,5.10
2022-09-29T21:56:49.526Z,5.45
2022-09-29T21:59:19.371Z,6.50
2022-09-29T22:01:46.889Z,5.93
2022-09-29T22:04:15.843Z,6.18
2022-09-29T22:06:44.787Z,6.88
2022-09-29T22:09:18.862Z,5.75
2022-09-29T22:11:46.476Z,5.50
2022-09-29T22:14:16.051Z,4.53
2022-09-29T22:16:43.904Z,4.78
2022-09-29T22:19:32.669Z,5.10
2022-09-29T22:21:59.672Z,5.28
2022-09-29T22:24:28.359Z,6.55
2022-09-29T22:26:56.097Z,5.18
2022-09-29T22:29:23.639Z,5.55
2022-09-29T22:31:51.955Z,5.35
2022-09-29T22:34:19.705Z,6.97
2022-09-29T22:36:47.153Z,6.28
2022-09-29T22:39:14.618Z,6.72
2022-09-29T22:41:43.156Z,6.70
2022-09-29T22:44:10.971Z,6.30
2022-09-29T22:46:38.461Z,6.95
2022-09-29T22:49:05.929Z,9.23
2022-09-29T22:51:36.095Z,6.45
2022-09-29T22:54:03.666Z,6.82
2022-09-29T22:56:31.044Z,8.52
2022-09-29T22:59:04.429Z,7.05
2022-09-29T23:01:33.612Z,7.07
2022-09-29T23:04:01.593Z,6.22
2022-09-29T23:06:29.015Z,6.03
2022-09-29T23:09:01.101Z,5.82
2022-09-29T23:11:31.265Z,6.35
2022-09-29T23:14:00.842Z,4.93
2022-09-29T23:16:28.724Z,5.10
2022-09-29T23:18:58.607Z,4.80
2022-09-29T23:21:26.791Z,4.90
2022-09-29T23:23:59.666Z,6.60
2022-09-29T23:26:30.006Z,6.53
2022-09-29T23:28:58.408Z,8.93
2022-09-29T23:31:27.187Z,6.50
2022-09-29T23:33:57.747Z,8.68
2022-09-29T23:36:30.102Z,7.65
2022-09-29T23:39:10.365Z,5.70
2022-09-29T23:41:44.011Z,6.43
2022-09-29T23:46:40.919Z,5.85
2022-09-29T23:49:11.567Z,7.25
2022-09-29T23:51:45.376Z,5.85
2022-09-29T23:54:16.249Z,5.30
2022-09-29T23:56:48.333Z,5.25
2022-09-29T23:59:16.209Z,6.18
